BEL3TX EBBR-EDDH
Flight info
| Callsign | BEL3TX |
|---|---|
| Flight time | 0h 56m |
| Altitude | 37000 |
| Route | NIK DCT NEPTU DCT TENLI DCT RIBSO RIBSO3P |
| Aircraft | A320/M-DE3FGHIJ1LORVWY/HB1 |
Departure
| Time | 2026-04-24 19:54 |
|---|---|
| Airport | Brussels Airport (EBBR) |
Arrival
| Time | 2026-04-24 20:50 |
|---|---|
| Airport | Hamburg Helmut Schmidt Airport (EDDH) |
| Time | Latitude | Longitude | Altitude | Speed | Heading |
|---|---|---|---|---|---|
| 2026-04-24 19:11 | 50.90438 | 4.48670 | 193 ft | 0 kts | 153° |
| 2026-04-24 19:27 | 50.90438 | 4.48671 | 193 ft | 0 kts | 153° |
| 2026-04-24 19:42 | 50.90438 | 4.48670 | 193 ft | 0 kts | 153° |
| 2026-04-24 19:43 | 50.90451 | 4.48659 | 193 ft | 2 kts | 153° |
| 2026-04-24 19:43 | 50.90465 | 4.48649 | 193 ft | 2 kts | 153° |
| 2026-04-24 19:43 | 50.90474 | 4.48642 | 193 ft | 2 kts | 153° |
| 2026-04-24 19:44 | 50.90485 | 4.48628 | 193 ft | 2 kts | 129° |
| 2026-04-24 19:44 | 50.90494 | 4.48608 | 193 ft | 2 kts | 111° |
| 2026-04-24 19:44 | 50.90497 | 4.48586 | 193 ft | 2 kts | 92° |
| 2026-04-24 19:44 | 50.90496 | 4.48562 | 193 ft | 2 kts | 73° |
| 2026-04-24 19:45 | 50.90493 | 4.48550 | 193 ft | 1 kts | 62° |
| 2026-04-24 19:45 | 50.90492 | 4.48545 | 193 ft | 0 kts | 64° |
| 2026-04-24 19:48 | 50.90492 | 4.48548 | 193 ft | 1 kts | 64° |
| 2026-04-24 19:48 | 50.90520 | 4.48640 | 193 ft | 7 kts | 64° |
| 2026-04-24 19:49 | 50.90581 | 4.48842 | 193 ft | 11 kts | 65° |
| 2026-04-24 19:49 | 50.90649 | 4.49085 | 193 ft | 12 kts | 66° |
| 2026-04-24 19:50 | 50.90772 | 4.49503 | 193 ft | 14 kts | 65° |
| 2026-04-24 19:50 | 50.90813 | 4.49646 | 193 ft | 11 kts | 64° |
| 2026-04-24 19:51 | 50.90915 | 4.49722 | 193 ft | 6 kts | 314° |
| 2026-04-24 19:51 | 50.90919 | 4.49717 | 193 ft | 0 kts | 314° |
| 2026-04-24 19:52 | 50.90920 | 4.49715 | 193 ft | 1 kts | 314° |
| 2026-04-24 19:52 | 50.90936 | 4.49688 | 193 ft | 5 kts | 314° |
| 2026-04-24 19:52 | 50.90964 | 4.49640 | 193 ft | 7 kts | 301° |
| 2026-04-24 19:52 | 50.90979 | 4.49546 | 193 ft | 9 kts | 280° |
| 2026-04-24 19:53 | 50.90994 | 4.49436 | 193 ft | 10 kts | 278° |
| 2026-04-24 19:53 | 50.90944 | 4.49221 | 193 ft | 48 kts | 245° |
| 2026-04-24 19:53 | 50.90270 | 4.46899 | 370 ft | 158 kts | 248° |
| 2026-04-24 19:54 | 50.89827 | 4.45312 | 963 ft | 162 kts | 255° |
| 2026-04-24 19:54 | 50.89824 | 4.43589 | 1576 ft | 161 kts | 295° |
| 2026-04-24 19:54 | 50.90573 | 4.42319 | 2110 ft | 163 kts | 333° |
| 2026-04-24 19:54 | 50.91600 | 4.41607 | 2723 ft | 162 kts | 339° |
| 2026-04-24 19:55 | 50.91942 | 4.41378 | 2942 ft | 161 kts | 339° |
| 2026-04-24 19:55 | 50.93661 | 4.40110 | 3753 ft | 175 kts | 336° |
| 2026-04-24 19:55 | 50.94783 | 4.39180 | 4127 ft | 192 kts | 334° |
| 2026-04-24 19:55 | 50.95993 | 4.38109 | 4514 ft | 209 kts | 332° |
| 2026-04-24 19:56 | 50.97327 | 4.36882 | 4830 ft | 233 kts | 331° |
| 2026-04-24 19:56 | 50.98763 | 4.35528 | 5304 ft | 251 kts | 330° |
| 2026-04-24 19:56 | 51.00301 | 4.34060 | 5876 ft | 265 kts | 330° |
| 2026-04-24 19:56 | 51.01886 | 4.32536 | 6699 ft | 269 kts | 330° |
| 2026-04-24 19:57 | 51.03456 | 4.31022 | 7527 ft | 271 kts | 329° |
| 2026-04-24 19:57 | 51.05060 | 4.29474 | 8342 ft | 275 kts | 329° |
| 2026-04-24 19:57 | 51.06694 | 4.27896 | 9159 ft | 278 kts | 329° |
| 2026-04-24 19:57 | 51.08327 | 4.26319 | 9956 ft | 281 kts | 329° |
| 2026-04-24 19:58 | 51.09998 | 4.24705 | 10737 ft | 285 kts | 328° |
| 2026-04-24 19:58 | 51.11716 | 4.23043 | 11187 ft | 300 kts | 328° |
| 2026-04-24 19:58 | 51.13601 | 4.21362 | 11581 ft | 317 kts | 338° |
| 2026-04-24 19:58 | 51.15752 | 4.20704 | 12214 ft | 325 kts | 360° |
| 2026-04-24 19:59 | 51.17957 | 4.21433 | 12965 ft | 330 kts | 22° |
| 2026-04-24 19:59 | 51.19850 | 4.23463 | 13633 ft | 337 kts | 41° |
| 2026-04-24 19:59 | 51.21544 | 4.26101 | 14095 ft | 342 kts | 44° |
| 2026-04-24 19:59 | 51.23180 | 4.28771 | 14228 ft | 343 kts | 44° |
| 2026-04-24 20:00 | 51.24862 | 4.31517 | 14229 ft | 342 kts | 44° |
| 2026-04-24 20:00 | 51.26526 | 4.34212 | 14236 ft | 343 kts | 44° |
| 2026-04-24 20:00 | 51.28216 | 4.36929 | 14548 ft | 350 kts | 43° |
| 2026-04-24 20:00 | 51.29910 | 4.39642 | 15308 ft | 349 kts | 43° |
| 2026-04-24 20:01 | 51.31604 | 4.42347 | 15968 ft | 351 kts | 43° |
| 2026-04-24 20:01 | 51.33384 | 4.45188 | 16565 ft | 356 kts | 43° |
| 2026-04-24 20:01 | 51.35132 | 4.47977 | 17147 ft | 360 kts | 43° |
| 2026-04-24 20:01 | 51.36905 | 4.50810 | 17722 ft | 364 kts | 43° |
| 2026-04-24 20:02 | 51.38112 | 4.52739 | 18093 ft | 366 kts | 43° |
| 2026-04-24 20:02 | 51.40515 | 4.56587 | 18806 ft | 372 kts | 43° |
| 2026-04-24 20:02 | 51.42349 | 4.59528 | 19311 ft | 376 kts | 43° |
| 2026-04-24 20:02 | 51.44217 | 4.62527 | 19818 ft | 380 kts | 43° |
| 2026-04-24 20:03 | 51.46062 | 4.65493 | 20426 ft | 381 kts | 44° |
| 2026-04-24 20:03 | 51.47937 | 4.68510 | 20953 ft | 384 kts | 44° |
| 2026-04-24 20:03 | 51.49809 | 4.71525 | 21405 ft | 388 kts | 44° |
| 2026-04-24 20:03 | 51.51721 | 4.74606 | 21863 ft | 392 kts | 44° |
| 2026-04-24 20:04 | 51.53667 | 4.77748 | 22318 ft | 396 kts | 43° |
| 2026-04-24 20:04 | 51.55622 | 4.80907 | 22767 ft | 400 kts | 43° |
| 2026-04-24 20:04 | 51.57569 | 4.84059 | 23199 ft | 404 kts | 43° |
| 2026-04-24 20:04 | 51.59484 | 4.87163 | 23615 ft | 407 kts | 43° |
| 2026-04-24 20:05 | 51.61533 | 4.90488 | 24042 ft | 411 kts | 43° |
| 2026-04-24 20:05 | 51.63562 | 4.93784 | 24459 ft | 415 kts | 43° |
| 2026-04-24 20:05 | 51.65591 | 4.97086 | 24879 ft | 418 kts | 43° |
| 2026-04-24 20:05 | 51.67614 | 5.00382 | 25291 ft | 420 kts | 43° |
| 2026-04-24 20:06 | 51.69683 | 5.03758 | 25708 ft | 423 kts | 43° |
| 2026-04-24 20:06 | 51.71746 | 5.07129 | 26095 ft | 426 kts | 43° |
| 2026-04-24 20:06 | 51.73802 | 5.10491 | 26469 ft | 429 kts | 43° |
| 2026-04-24 20:06 | 51.75909 | 5.13943 | 26843 ft | 432 kts | 43° |
| 2026-04-24 20:07 | 51.77316 | 5.16250 | 27097 ft | 434 kts | 43° |
| 2026-04-24 20:07 | 51.80114 | 5.20845 | 27573 ft | 437 kts | 43° |
| 2026-04-24 20:07 | 51.82244 | 5.24346 | 27928 ft | 440 kts | 43° |
| 2026-04-24 20:07 | 51.84394 | 5.27891 | 28268 ft | 442 kts | 43° |
| 2026-04-24 20:08 | 51.86530 | 5.31418 | 28597 ft | 445 kts | 43° |
| 2026-04-24 20:08 | 51.88643 | 5.35037 | 28916 ft | 448 kts | 46° |
| 2026-04-24 20:08 | 51.90650 | 5.38904 | 29228 ft | 452 kts | 50° |
| 2026-04-24 20:08 | 51.92503 | 5.42985 | 29533 ft | 455 kts | 54° |
| 2026-04-24 20:09 | 51.94223 | 5.47209 | 29838 ft | 458 kts | 55° |
| 2026-04-24 20:09 | 51.95961 | 5.51615 | 30124 ft | 461 kts | 56° |
| 2026-04-24 20:09 | 51.97655 | 5.55938 | 30395 ft | 464 kts | 55° |
| 2026-04-24 20:09 | 51.99380 | 5.60336 | 30686 ft | 466 kts | 55° |
| 2026-04-24 20:10 | 52.01129 | 5.64785 | 30999 ft | 467 kts | 55° |
| 2026-04-24 20:10 | 52.02848 | 5.69151 | 31294 ft | 468 kts | 56° |
| 2026-04-24 20:10 | 52.04592 | 5.73580 | 31559 ft | 470 kts | 56° |
| 2026-04-24 20:10 | 52.06341 | 5.78031 | 31811 ft | 472 kts | 56° |
| 2026-04-24 20:11 | 52.08123 | 5.82569 | 32068 ft | 473 kts | 56° |
| 2026-04-24 20:11 | 52.09865 | 5.87013 | 32308 ft | 475 kts | 56° |
| 2026-04-24 20:11 | 52.11626 | 5.91516 | 32540 ft | 477 kts | 56° |
| 2026-04-24 20:11 | 52.13395 | 5.96045 | 32769 ft | 478 kts | 56° |
| 2026-04-24 20:12 | 52.15176 | 6.00613 | 32990 ft | 480 kts | 56° |
| 2026-04-24 20:12 | 52.16971 | 6.05225 | 33208 ft | 481 kts | 56° |
| 2026-04-24 20:12 | 52.18741 | 6.09780 | 33446 ft | 482 kts | 56° |
| 2026-04-24 20:12 | 52.20541 | 6.14425 | 33741 ft | 481 kts | 56° |
| 2026-04-24 20:13 | 52.22313 | 6.19007 | 34036 ft | 480 kts | 55° |
| 2026-04-24 20:13 | 52.24150 | 6.23486 | 34312 ft | 478 kts | 52° |
| 2026-04-24 20:13 | 52.26163 | 6.27839 | 34580 ft | 476 kts | 48° |
| 2026-04-24 20:13 | 52.28296 | 6.31971 | 34858 ft | 474 kts | 46° |
| 2026-04-24 20:14 | 52.30460 | 6.36001 | 35130 ft | 473 kts | 45° |
| 2026-04-24 20:14 | 52.32617 | 6.39988 | 35377 ft | 473 kts | 45° |
| 2026-04-24 20:14 | 52.34772 | 6.43981 | 35596 ft | 473 kts | 45° |
| 2026-04-24 20:14 | 52.36969 | 6.48065 | 35801 ft | 473 kts | 45° |
| 2026-04-24 20:15 | 52.39109 | 6.52062 | 35976 ft | 474 kts | 45° |
| 2026-04-24 20:15 | 52.41285 | 6.56139 | 36148 ft | 474 kts | 45° |
| 2026-04-24 20:15 | 52.43434 | 6.60175 | 36324 ft | 474 kts | 46° |
| 2026-04-24 20:15 | 52.45606 | 6.64266 | 36468 ft | 475 kts | 46° |
| 2026-04-24 20:16 | 52.47763 | 6.68330 | 36584 ft | 476 kts | 46° |
| 2026-04-24 20:16 | 52.49932 | 6.72428 | 36703 ft | 477 kts | 46° |
| 2026-04-24 20:16 | 52.52119 | 6.76568 | 36834 ft | 478 kts | 46° |
| 2026-04-24 20:16 | 52.54274 | 6.80656 | 36956 ft | 478 kts | 46° |
| 2026-04-24 20:17 | 52.56461 | 6.84810 | 37070 ft | 479 kts | 46° |
| 2026-04-24 20:17 | 52.60781 | 6.93032 | 37198 ft | 480 kts | 46° |
| 2026-04-24 20:17 | 52.62965 | 6.97200 | 37201 ft | 480 kts | 46° |
| 2026-04-24 20:18 | 52.67313 | 7.05522 | 37202 ft | 480 kts | 46° |
| 2026-04-24 20:18 | 52.71680 | 7.13904 | 37205 ft | 481 kts | 46° |
| 2026-04-24 20:19 | 52.75998 | 7.22222 | 37209 ft | 480 kts | 46° |
| 2026-04-24 20:19 | 52.80322 | 7.30576 | 37215 ft | 480 kts | 46° |
| 2026-04-24 20:20 | 52.84639 | 7.38945 | 37089 ft | 478 kts | 46° |
| 2026-04-24 20:20 | 52.86787 | 7.43122 | 36473 ft | 480 kts | 46° |
| 2026-04-24 20:20 | 52.88963 | 7.47357 | 35551 ft | 487 kts | 46° |
| 2026-04-24 20:21 | 52.91160 | 7.51637 | 34606 ft | 493 kts | 46° |
| 2026-04-24 20:21 | 52.93380 | 7.55972 | 33694 ft | 497 kts | 46° |
| 2026-04-24 20:21 | 52.95609 | 7.60333 | 32838 ft | 500 kts | 46° |
| 2026-04-24 20:21 | 52.97858 | 7.64744 | 32228 ft | 495 kts | 46° |
| 2026-04-24 20:22 | 53.00030 | 7.69014 | 31719 ft | 489 kts | 47° |
| 2026-04-24 20:22 | 53.02193 | 7.73275 | 31182 ft | 484 kts | 47° |
| 2026-04-24 20:22 | 53.04342 | 7.77510 | 30635 ft | 479 kts | 47° |
| 2026-04-24 20:22 | 53.06469 | 7.81712 | 30098 ft | 474 kts | 47° |
| 2026-04-24 20:23 | 53.08584 | 7.85893 | 29500 ft | 471 kts | 47° |
| 2026-04-24 20:23 | 53.10664 | 7.90010 | 28913 ft | 467 kts | 47° |
| 2026-04-24 20:23 | 53.12741 | 7.94133 | 28408 ft | 462 kts | 47° |
| 2026-04-24 20:23 | 53.14759 | 7.98144 | 27938 ft | 455 kts | 47° |
| 2026-04-24 20:24 | 53.16103 | 8.00818 | 27630 ft | 451 kts | 47° |
| 2026-04-24 20:24 | 53.18754 | 8.06109 | 27026 ft | 443 kts | 47° |
| 2026-04-24 20:24 | 53.20705 | 8.10003 | 26573 ft | 437 kts | 47° |
| 2026-04-24 20:24 | 53.22621 | 8.13832 | 26129 ft | 431 kts | 47° |
| 2026-04-24 20:25 | 53.24529 | 8.17653 | 25680 ft | 426 kts | 47° |
| 2026-04-24 20:25 | 53.26409 | 8.21423 | 25236 ft | 421 kts | 47° |
| 2026-04-24 20:25 | 53.28257 | 8.25132 | 24794 ft | 416 kts | 47° |
| 2026-04-24 20:25 | 53.30101 | 8.28840 | 24352 ft | 411 kts | 47° |
| 2026-04-24 20:26 | 53.31911 | 8.32487 | 23917 ft | 407 kts | 47° |
| 2026-04-24 20:26 | 53.33709 | 8.36115 | 23481 ft | 403 kts | 47° |
| 2026-04-24 20:26 | 53.35482 | 8.39697 | 23052 ft | 398 kts | 47° |
| 2026-04-24 20:26 | 53.37240 | 8.43254 | 22619 ft | 395 kts | 47° |
| 2026-04-24 20:27 | 53.38971 | 8.46761 | 22193 ft | 391 kts | 47° |
| 2026-04-24 20:27 | 53.40693 | 8.50254 | 21766 ft | 388 kts | 47° |
| 2026-04-24 20:27 | 53.42400 | 8.53724 | 21341 ft | 384 kts | 47° |
| 2026-04-24 20:27 | 53.44087 | 8.57155 | 20921 ft | 381 kts | 47° |
| 2026-04-24 20:28 | 53.45752 | 8.60549 | 20502 ft | 378 kts | 47° |
| 2026-04-24 20:28 | 53.47424 | 8.63957 | 20083 ft | 375 kts | 47° |
| 2026-04-24 20:28 | 53.49040 | 8.67260 | 19669 ft | 373 kts | 47° |
| 2026-04-24 20:28 | 53.50679 | 8.70612 | 19252 ft | 370 kts | 47° |
| 2026-04-24 20:29 | 53.51760 | 8.72826 | 18975 ft | 368 kts | 47° |
| 2026-04-24 20:29 | 53.53916 | 8.77249 | 18423 ft | 364 kts | 47° |
| 2026-04-24 20:29 | 53.55517 | 8.80537 | 18010 ft | 362 kts | 47° |
| 2026-04-24 20:29 | 53.57085 | 8.83763 | 17605 ft | 359 kts | 47° |
| 2026-04-24 20:30 | 53.58654 | 8.86995 | 17198 ft | 356 kts | 47° |
| 2026-04-24 20:30 | 53.60220 | 8.90228 | 16788 ft | 354 kts | 47° |
| 2026-04-24 20:30 | 53.61775 | 8.93438 | 16380 ft | 352 kts | 47° |
| 2026-04-24 20:30 | 53.63298 | 8.96585 | 15978 ft | 349 kts | 47° |
| 2026-04-24 20:31 | 53.64838 | 8.99772 | 15569 ft | 347 kts | 47° |
| 2026-04-24 20:31 | 53.66350 | 9.02906 | 15164 ft | 345 kts | 47° |
| 2026-04-24 20:31 | 53.67857 | 9.06034 | 14758 ft | 343 kts | 47° |
| 2026-04-24 20:31 | 53.69339 | 9.09113 | 14358 ft | 341 kts | 47° |
| 2026-04-24 20:32 | 53.70829 | 9.12211 | 13952 ft | 338 kts | 47° |
| 2026-04-24 20:32 | 53.72298 | 9.15271 | 13551 ft | 336 kts | 46° |
| 2026-04-24 20:32 | 53.73770 | 9.18342 | 13148 ft | 333 kts | 46° |
| 2026-04-24 20:32 | 53.75207 | 9.21342 | 12756 ft | 331 kts | 46° |
| 2026-04-24 20:33 | 53.76656 | 9.24372 | 12358 ft | 328 kts | 46° |
| 2026-04-24 20:33 | 53.78071 | 9.27337 | 11969 ft | 325 kts | 46° |
| 2026-04-24 20:33 | 53.79478 | 9.30285 | 11582 ft | 322 kts | 46° |
| 2026-04-24 20:33 | 53.80764 | 9.33378 | 11185 ft | 324 kts | 56° |
| 2026-04-24 20:34 | 53.81621 | 9.36884 | 10954 ft | 322 kts | 70° |
| 2026-04-24 20:34 | 53.82131 | 9.40566 | 10982 ft | 324 kts | 73° |
| 2026-04-24 20:34 | 53.82575 | 9.44354 | 11008 ft | 325 kts | 74° |
| 2026-04-24 20:34 | 53.83000 | 9.48057 | 11033 ft | 325 kts | 74° |
| 2026-04-24 20:35 | 53.83441 | 9.51855 | 11058 ft | 325 kts | 74° |
| 2026-04-24 20:35 | 53.83886 | 9.55613 | 11082 ft | 325 kts | 73° |
| 2026-04-24 20:35 | 53.84330 | 9.59332 | 11105 ft | 325 kts | 73° |
| 2026-04-24 20:35 | 53.84780 | 9.63100 | 11115 ft | 326 kts | 73° |
| 2026-04-24 20:36 | 53.85229 | 9.66859 | 11119 ft | 326 kts | 74° |
| 2026-04-24 20:36 | 53.85667 | 9.70556 | 11166 ft | 312 kts | 74° |
| 2026-04-24 20:36 | 53.86075 | 9.74037 | 11129 ft | 293 kts | 74° |
| 2026-04-24 20:36 | 53.86456 | 9.77288 | 11118 ft | 274 kts | 75° |
| 2026-04-24 20:37 | 53.86647 | 9.80474 | 10850 ft | 272 kts | 85° |
| 2026-04-24 20:37 | 53.86533 | 9.83658 | 10516 ft | 274 kts | 92° |
| 2026-04-24 20:37 | 53.86304 | 9.86858 | 10218 ft | 272 kts | 93° |
| 2026-04-24 20:37 | 53.86060 | 9.89985 | 9921 ft | 270 kts | 93° |
| 2026-04-24 20:38 | 53.85822 | 9.93107 | 9626 ft | 269 kts | 93° |
| 2026-04-24 20:38 | 53.85588 | 9.96250 | 9322 ft | 267 kts | 93° |
| 2026-04-24 20:38 | 53.85367 | 9.99304 | 9037 ft | 265 kts | 92° |
| 2026-04-24 20:38 | 53.85145 | 10.02402 | 8741 ft | 264 kts | 92° |
| 2026-04-24 20:39 | 53.84923 | 10.05486 | 8438 ft | 262 kts | 92° |
| 2026-04-24 20:39 | 53.84704 | 10.08526 | 8139 ft | 261 kts | 92° |
| 2026-04-24 20:39 | 53.84484 | 10.11573 | 7842 ft | 260 kts | 92° |
| 2026-04-24 20:39 | 53.84267 | 10.14579 | 7549 ft | 259 kts | 92° |
| 2026-04-24 20:40 | 53.84085 | 10.17590 | 7246 ft | 255 kts | 83° |
| 2026-04-24 20:40 | 53.84479 | 10.20423 | 6909 ft | 242 kts | 53° |
| 2026-04-24 20:40 | 53.85450 | 10.22668 | 6632 ft | 233 kts | 42° |
| 2026-04-24 20:40 | 53.86502 | 10.24697 | 6335 ft | 232 kts | 41° |
| 2026-04-24 20:41 | 53.87575 | 10.26764 | 6041 ft | 231 kts | 42° |
| 2026-04-24 20:41 | 53.88618 | 10.28815 | 5751 ft | 230 kts | 42° |
| 2026-04-24 20:41 | 53.89651 | 10.30881 | 5461 ft | 229 kts | 43° |
| 2026-04-24 20:41 | 53.90627 | 10.33030 | 5098 ft | 237 kts | 55° |
| 2026-04-24 20:42 | 53.91041 | 10.35818 | 4570 ft | 257 kts | 88° |
| 2026-04-24 20:42 | 53.90540 | 10.38705 | 4338 ft | 258 kts | 120° |
| 2026-04-24 20:42 | 53.89289 | 10.40784 | 4084 ft | 256 kts | 153° |
| 2026-04-24 20:42 | 53.87607 | 10.41508 | 3992 ft | 249 kts | 187° |
| 2026-04-24 20:43 | 53.85949 | 10.41030 | 3999 ft | 245 kts | 200° |
| 2026-04-24 20:43 | 53.84394 | 10.40052 | 3987 ft | 232 kts | 213° |
| 2026-04-24 20:43 | 53.82996 | 10.38711 | 3987 ft | 227 kts | 221° |
| 2026-04-24 20:43 | 53.81802 | 10.37038 | 3990 ft | 222 kts | 232° |
| 2026-04-24 20:44 | 53.80806 | 10.35084 | 3990 ft | 218 kts | 239° |
| 2026-04-24 20:44 | 53.79900 | 10.33052 | 3989 ft | 218 kts | 240° |
| 2026-04-24 20:44 | 53.78984 | 10.31029 | 3989 ft | 219 kts | 239° |
| 2026-04-24 20:44 | 53.78032 | 10.29016 | 3986 ft | 217 kts | 238° |
| 2026-04-24 20:45 | 53.77105 | 10.27128 | 3969 ft | 204 kts | 237° |
| 2026-04-24 20:45 | 53.76215 | 10.25350 | 3867 ft | 194 kts | 238° |
| 2026-04-24 20:45 | 53.75368 | 10.23665 | 3679 ft | 186 kts | 238° |
| 2026-04-24 20:45 | 53.74543 | 10.22018 | 3406 ft | 183 kts | 238° |
| 2026-04-24 20:46 | 53.73736 | 10.20404 | 3142 ft | 180 kts | 238° |
| 2026-04-24 20:46 | 53.72944 | 10.18819 | 2887 ft | 176 kts | 239° |
| 2026-04-24 20:46 | 53.72170 | 10.17269 | 2643 ft | 172 kts | 238° |
| 2026-04-24 20:46 | 53.71405 | 10.15734 | 2410 ft | 171 kts | 238° |
| 2026-04-24 20:47 | 53.70641 | 10.14196 | 2189 ft | 170 kts | 237° |
| 2026-04-24 20:47 | 53.69888 | 10.12679 | 1972 ft | 169 kts | 237° |
| 2026-04-24 20:47 | 53.69138 | 10.11165 | 1773 ft | 168 kts | 237° |
| 2026-04-24 20:47 | 53.68401 | 10.09680 | 1562 ft | 162 kts | 236° |
| 2026-04-24 20:48 | 53.67706 | 10.08276 | 1331 ft | 151 kts | 233° |
| 2026-04-24 20:48 | 53.67056 | 10.06966 | 1115 ft | 141 kts | 233° |
| 2026-04-24 20:48 | 53.66454 | 10.05748 | 936 ft | 136 kts | 234° |
| 2026-04-24 20:48 | 53.65845 | 10.04512 | 769 ft | 136 kts | 233° |
| 2026-04-24 20:49 | 53.65248 | 10.03305 | 594 ft | 136 kts | 234° |
| 2026-04-24 20:49 | 53.64639 | 10.02073 | 410 ft | 136 kts | 233° |
| 2026-04-24 20:49 | 53.64038 | 10.00870 | 244 ft | 135 kts | 234° |
| 2026-04-24 20:49 | 53.63436 | 9.99647 | 73 ft | 133 kts | 233° |
| 2026-04-24 20:50 | 53.62917 | 9.98578 | 62 ft | 95 kts | 230° |
| 2026-04-24 20:50 | 53.62617 | 9.97981 | 62 ft | 38 kts | 230° |
| 2026-04-24 20:50 | 53.62497 | 9.97793 | 62 ft | 14 kts | 179° |
| 2026-04-24 20:50 | 53.62427 | 9.97897 | 62 ft | 14 kts | 96° |
| 2026-04-24 20:51 | 53.62449 | 9.98037 | 62 ft | 1 kts | 66° |
| 2026-04-24 20:51 | 53.62456 | 9.98063 | 62 ft | 4 kts | 59° |
| 2026-04-24 20:51 | 53.62482 | 9.98122 | 62 ft | 8 kts | 53° |
| 2026-04-24 20:51 | 53.62527 | 9.98222 | 62 ft | 12 kts | 49° |
| 2026-04-24 20:52 | 53.62586 | 9.98338 | 62 ft | 13 kts | 49° |
| 2026-04-24 20:52 | 53.62651 | 9.98465 | 62 ft | 14 kts | 50° |
| 2026-04-24 20:52 | 53.62716 | 9.98600 | 62 ft | 15 kts | 50° |
| 2026-04-24 20:52 | 53.62788 | 9.98742 | 62 ft | 16 kts | 51° |
| 2026-04-24 20:53 | 53.62860 | 9.98892 | 62 ft | 16 kts | 51° |
| 2026-04-24 20:53 | 53.62936 | 9.99046 | 62 ft | 17 kts | 50° |
| 2026-04-24 20:53 | 53.63006 | 9.99190 | 62 ft | 15 kts | 51° |
| 2026-04-24 20:53 | 53.63057 | 9.99302 | 62 ft | 6 kts | 56° |
| 2026-04-24 20:54 | 53.63088 | 9.99373 | 62 ft | 8 kts | 53° |
| 2026-04-24 20:54 | 53.63132 | 9.99470 | 62 ft | 11 kts | 53° |
| 2026-04-24 20:54 | 53.63184 | 9.99591 | 62 ft | 12 kts | 53° |
| 2026-04-24 20:54 | 53.63221 | 9.99670 | 62 ft | 3 kts | 50° |
| 2026-04-24 20:55 | 53.63234 | 9.99699 | 62 ft | 4 kts | 69° |
| 2026-04-24 20:55 | 53.63230 | 9.99728 | 62 ft | 1 kts | 118° |
| 2026-04-24 20:55 | 53.63228 | 9.99735 | 62 ft | 1 kts | 120° |
| 2026-04-24 20:55 | 53.63213 | 9.99757 | 62 ft | 5 kts | 149° |
| 2026-04-24 20:56 | 53.63166 | 9.99803 | 62 ft | 10 kts | 150° |
| 2026-04-24 20:56 | 53.63135 | 9.99890 | 62 ft | 8 kts | 72° |
| 2026-04-24 20:56 | 53.63178 | 9.99987 | 62 ft | 12 kts | 39° |
| 2026-04-24 20:56 | 53.63243 | 10.00107 | 62 ft | 14 kts | 44° |
| 2026-04-24 20:57 | 53.63305 | 10.00209 | 62 ft | 11 kts | 29° |
| 2026-04-24 20:57 | 53.63382 | 10.00217 | 62 ft | 10 kts | 352° |
| 2026-04-24 20:57 | 53.63412 | 10.00298 | 62 ft | 9 kts | 89° |
| 2026-04-24 20:57 | 53.63412 | 10.00344 | 62 ft | 0 kts | 89° |